Passaic, Missouri
Current Conditions -  °F | °C
As of 11:55 AM on Friday 24 Oct 2014 (Local Time) from KGLY Reporting Station
Haze Haze  
Wind Chill: 68°   Ceiling: Unl
Heat Index: 68°   Visibility: 5mi
Dew Point: 59°   Wind: 9mph
Humidity: 73%   Direction: 220°SW
Pressure: 30.09"   Gusts: NA
Location:  38.32°N, 94.35°W
Report Text: KGLY 241655Z AUTO 22008KT 5SM HZ CLR 20/15 A3009 RMK AO2
Loading
Personal Weather Stations






























Interactive Weather Map
Tropical Storm Tracking
New forecast layout! Learn more

10-Day Weather Forecast

Advertisements
Track Severe Weather on mobile